Hanamaulu, HI

4:46 PM HST on August 27, 2016 (GMT -1000)
Lihue | | Change Station

Elev 102 ft 21.98 °N, 159.34 °W | Updated 37 minutes ago

Scattered Clouds
Scattered Clouds
83 °F
Feels Like 87 °F
N
14
Wind Variable Wind from NE

Today
High -- | Low -- °F
--% Chance of Precip.
Yesterday
High -- | Low -- °F
Precip. -- in
Pressure 29.96 in
Visibility 10.0 miles
Clouds Few 200 ft
Scattered Clouds 2600 ft
Scattered Clouds 3100 ft
Heat Index 87 °F
Dew Point 70 °F
Humidity 65%
Rainfall 0.02 in
Snow Depth Not available.
6:19 AM 6:57 PM
Waning Crescent, 19% visible
SPECI PHLI 280209Z 05012KT 10SM FEW002 SCT026 SCT031 28/21 A2996 RMK AO2 T02830211
Pressure 29.96 in
Visibility 10.0 miles
Clouds Few 200 ft
Scattered Clouds 2600 ft
Scattered Clouds 3100 ft
Heat Index 87 °F
Dew Point 70 °F
Humidity 65%
Rainfall 0.02 in
Snow Depth Not available.
6:19 AM 6:57 PM
Waning Crescent, 19% visible
SPECI PHLI 280209Z 05012KT 10SM FEW002 SCT026 SCT031 28/21 A2996 RMK AO2 T02830211

10-Day Weather Forecast

Almanac

Astronomy

Aug. 27, 2016 Rise Set
Actual Time
Civil Twilight
Nautical Twilight
Astronomical Twilight
Moon
Length of Visible Light
Length of Day
Tomorrow will be .
, % of the Moon is Illuminated

Today's Extremes

State Highs State Lows

Community

WunderPhotos

Upload Photos

1,935,505 photos uploaded!

WunderBlog® & News

Nearby

Air Quality

  Air Quality AQ Index Pollutant
Not available.

Snow Depth

Station Depth Elevation

Earthquake Activity

City Distance Mag. Time & Date
Minimum magnitude displayed is 2.5.

Coastal Water Temperatures

Place Temperature

Stations

Nearby Weather Stations

Station Location Temp. Windchill Dew Point Humidity Wind Precip. Elev Updated Type
                   

Watches & Warnings

There are currently no watches in effect.